KIRK/IRK METAR and TAF weather

Enter ICAO airport designator
Station Type Date Time Source
KIRK METAR 2019/08/25 05:55 UTC NOAA

KIRK 250555Z AUTO 12007KT 10SM BKN050 OVC095 19/14 A3009 RMK AO2 SLP185 T01890144 10217 20189 402560139 58008


Station Type Date Time Source
KIRK Decoded METAR 2019/08/25 05:55 UTC NOAA

Station name not available
Aug 25, 2019 - 01:55 AM EDT / 2019.08.25 0555 UTC
Wind: from the ESE (120 degrees) at 8 MPH (7 KT):0
Visibility: 10 mile(s):0
Sky conditions: overcast
Temperature: 66.0 F (18.9 C)
Dew Point: 57.9 F (14.4 C)
Relative Humidity: 75%
Pressure (altimeter): 30.09 in. Hg (1018 hPa)
Pressure tendency: 0.02 inches (0.8 hPa) lower than three hours ago
ob: KIRK 250555Z AUTO 12007KT 10SM BKN050 OVC095 19/14 A3009 RMK AO2 SLP185 T01890144 10217 20189 402560139 58008
cycle: 6

Station Type Date Time Source
KIRK TAF UTC NOAA

Error!

Example: see airport list